createdAt,value
2023-02-11T00:00:06.104Z,12.00
2023-02-11T00:04:13.033Z,11.15
2023-02-11T00:08:19.689Z,12.68
2023-02-11T00:12:26.707Z,9.70
2023-02-11T00:16:33.713Z,8.55
2023-02-11T00:20:40.935Z,8.32
2023-02-11T00:24:47.725Z,7.35
2023-02-11T00:28:54.786Z,7.50
2023-02-11T00:33:02.353Z,6.75
2023-02-11T00:37:09.143Z,6.18
2023-02-11T00:41:17.282Z,5.60
2023-02-11T00:45:23.960Z,6.15
2023-02-11T00:49:30.680Z,5.60
2023-02-11T00:53:37.588Z,5.85
2023-02-11T00:57:44.286Z,5.28
2023-02-11T01:01:51.024Z,5.80
2023-02-11T01:05:57.745Z,4.63
2023-02-11T01:10:05.085Z,4.93
2023-02-11T01:14:11.810Z,4.93
2023-02-11T01:18:18.740Z,4.15
2023-02-11T01:22:25.519Z,4.55
2023-02-11T01:26:32.305Z,6.78
2023-02-11T01:30:39.751Z,4.70
2023-02-11T01:34:46.492Z,6.40
2023-02-11T01:38:53.188Z,4.70
2023-02-11T01:42:59.865Z,5.55
2023-02-11T01:47:06.637Z,4.65
2023-02-11T01:51:20.427Z,5.75
2023-02-11T01:55:45.702Z,6.07
2023-02-11T02:00:24.220Z,5.82
2023-02-11T02:04:35.633Z,5.10
2023-02-11T02:08:44.266Z,5.22
2023-02-11T02:12:50.990Z,5.07
2023-02-11T02:16:57.748Z,6.45
2023-02-11T02:21:42.139Z,5.40
2023-02-11T02:26:18.804Z,6.25
2023-02-11T02:31:05.403Z,5.55
2023-02-11T02:35:38.164Z,7.28
2023-02-11T02:39:48.716Z,5.82
2023-02-11T02:43:56.031Z,5.72
2023-02-11T02:48:03.003Z,6.68
2023-02-11T02:52:38.424Z,5.72
2023-02-11T02:56:57.740Z,5.63
2023-02-11T03:01:15.299Z,5.55
2023-02-11T03:05:40.371Z,5.78
2023-02-11T03:10:07.393Z,5.63
2023-02-11T03:14:17.173Z,6.70
2023-02-11T03:18:27.359Z,4.80
2023-02-11T03:22:39.879Z,5.32
2023-02-11T03:31:10.556Z,5.75
2023-02-11T03:35:26.448Z,5.90
2023-02-11T03:40:05.401Z,5.60
2023-02-11T03:44:14.531Z,5.60
2023-02-11T03:48:38.056Z,4.53
2023-02-11T03:52:47.127Z,6.47
2023-02-11T03:56:56.440Z,6.18
2023-02-11T04:01:05.138Z,5.63
2023-02-11T04:05:15.320Z,6.40
2023-02-11T04:09:22.602Z,5.45
2023-02-11T04:13:29.443Z,5.80
2023-02-11T04:17:36.152Z,7.45
2023-02-11T04:21:42.827Z,6.20
2023-02-11T04:25:50.282Z,7.28
2023-02-11T04:29:57.149Z,6.72
2023-02-11T04:34:03.886Z,6.35
2023-02-11T04:38:10.648Z,7.93
2023-02-11T04:42:17.339Z,6.97
2023-02-11T04:46:24.077Z,7.90
2023-02-11T04:50:30.953Z,7.43
2023-02-11T04:54:37.735Z,7.88
2023-02-11T04:58:44.459Z,8.00
2023-02-11T05:02:51.179Z,9.20
2023-02-11T05:06:58.778Z,9.20
2023-02-11T05:11:05.761Z,9.45
2023-02-11T05:15:13.387Z,9.88
2023-02-11T05:19:20.585Z,9.93
2023-02-11T05:23:27.438Z,10.40
2023-02-11T05:27:34.212Z,10.88
2023-02-11T05:31:40.903Z,10.40
2023-02-11T05:35:47.665Z,11.27
2023-02-11T05:39:54.383Z,12.52
2023-02-11T05:44:01.671Z,13.27
2023-02-11T05:48:08.408Z,12.02
2023-02-11T05:52:15.097Z,13.10
2023-02-11T05:56:21.753Z,13.23
2023-02-11T06:00:28.852Z,12.75
2023-02-11T06:04:36.598Z,12.55
2023-02-11T06:08:43.386Z,13.85
2023-02-11T06:12:50.093Z,14.25
2023-02-11T06:16:56.757Z,13.75
2023-02-11T06:21:07.862Z,13.73
2023-02-11T06:25:15.094Z,14.63
2023-02-11T06:29:21.788Z,14.10
2023-02-11T06:33:28.564Z,14.85
2023-02-11T06:37:35.561Z,14.80
2023-02-11T06:41:42.249Z,14.88
2023-02-11T06:45:56.250Z,13.55
2023-02-11T06:50:03.696Z,14.13
2023-02-11T06:54:12.942Z,15.98
2023-02-11T06:58:19.637Z,14.57
2023-02-11T07:02:26.427Z,15.35
2023-02-11T07:06:33.096Z,15.68
2023-02-11T07:10:40.120Z,14.80
2023-02-11T07:14:46.827Z,15.20
2023-02-11T07:18:54.201Z,15.35
2023-02-11T07:23:00.908Z,17.30
2023-02-11T07:27:07.674Z,16.13
2023-02-11T07:31:26.279Z,16.77
2023-02-11T07:35:33.020Z,17.25
2023-02-11T07:39:39.712Z,17.13
2023-02-11T07:43:47.021Z,17.67
2023-02-11T07:47:53.906Z,18.63
2023-02-11T07:52:00.656Z,18.02
2023-02-11T07:56:08.404Z,17.50
2023-02-11T08:00:15.654Z,20.33
2023-02-11T08:04:22.361Z,18.52
2023-02-11T08:08:29.020Z,18.38
2023-02-11T08:12:35.840Z,17.08
2023-02-11T08:16:42.747Z,18.50
2023-02-11T08:20:49.780Z,17.38
2023-02-11T08:24:58.351Z,17.85
2023-02-11T08:29:09.447Z,18.90
2023-02-11T08:33:16.250Z,17.98
2023-02-11T08:37:22.911Z,18.30
2023-02-11T08:41:29.679Z,18.00
2023-02-11T08:45:37.763Z,16.52
2023-02-11T08:49:44.465Z,17.85
2023-02-11T08:53:51.830Z,17.35
2023-02-11T08:57:58.515Z,17.33
2023-02-11T09:02:05.508Z,16.67
2023-02-11T09:06:13.795Z,15.88
2023-02-11T09:10:20.565Z,17.38
2023-02-11T09:14:27.668Z,15.32
2023-02-11T09:18:34.434Z,17.15
2023-02-11T09:22:41.122Z,16.40
2023-02-11T09:26:47.970Z,17.17
2023-02-11T09:30:55.043Z,16.48
2023-02-11T09:35:02.048Z,15.80
2023-02-11T09:39:17.073Z,16.77
2023-02-11T09:43:43.011Z,17.00
2023-02-11T09:47:58.554Z,15.82
2023-02-11T09:52:23.386Z,15.93
2023-02-11T09:56:30.898Z,15.38
2023-02-11T10:00:51.468Z,15.82
2023-02-11T10:05:20.162Z,15.80
2023-02-11T10:09:54.755Z,16.17
2023-02-11T10:14:07.721Z,14.70
2023-02-11T10:18:17.191Z,14.75
2023-02-11T10:22:37.519Z,14.48
2023-02-11T10:26:45.981Z,14.02
2023-02-11T10:31:08.285Z,13.77
2023-02-11T10:35:19.430Z,12.52
2023-02-11T10:39:27.675Z,12.77
2023-02-11T10:43:35.010Z,14.88
2023-02-11T10:47:42.707Z,12.75
2023-02-11T10:51:49.415Z,13.07
2023-02-11T10:55:57.452Z,12.38
2023-02-11T11:00:23.135Z,11.18
2023-02-11T11:04:29.872Z,12.85
2023-02-11T11:08:46.864Z,13.15
2023-02-11T11:12:53.572Z,11.30
2023-02-11T11:17:00.233Z,12.38
2023-02-11T11:21:14.796Z,11.95
2023-02-11T11:25:30.185Z,12.55
2023-02-11T11:29:49.345Z,12.35
2023-02-11T11:33:59.239Z,12.38
2023-02-11T11:38:06.058Z,10.95
2023-02-11T11:42:28.168Z,12.50
2023-02-11T11:46:38.681Z,11.32
2023-02-11T11:50:50.128Z,11.32
2023-02-11T11:55:07.800Z,11.67
2023-02-11T11:59:16.655Z,9.95
2023-02-11T12:03:32.286Z,11.55
2023-02-11T12:08:02.398Z,12.98
2023-02-11T12:12:32.700Z,11.38
2023-02-11T12:17:28.292Z,10.60
2023-02-11T12:21:46.596Z,9.70
2023-02-11T12:26:18.130Z,10.77
2023-02-11T12:30:58.993Z,9.95
2023-02-11T12:35:28.555Z,11.70
2023-02-11T12:40:01.335Z,9.98
2023-02-11T12:44:17.756Z,8.77
2023-02-11T12:48:48.702Z,9.68
2023-02-11T12:53:21.469Z,6.38
2023-02-11T12:57:34.669Z,6.70
2023-02-11T13:01:43.756Z,6.85
2023-02-11T13:05:55.169Z,7.40
2023-02-11T13:10:16.700Z,7.10
2023-02-11T13:14:29.486Z,7.57
2023-02-11T13:19:17.837Z,6.18
2023-02-11T13:23:46.520Z,5.78
2023-02-11T13:28:32.313Z,5.20
2023-02-11T13:32:54.400Z,5.72
2023-02-11T13:37:01.192Z,5.05
2023-02-11T13:41:29.354Z,5.07
2023-02-11T13:45:45.062Z,5.40
2023-02-11T13:49:53.449Z,4.30
2023-02-11T13:54:01.332Z,5.03
2023-02-11T13:58:07.975Z,4.70
2023-02-11T14:02:36.267Z,4.82
2023-02-11T14:07:40.696Z,4.43
2023-02-11T14:11:48.947Z,3.95
2023-02-11T14:16:06.914Z,4.15
2023-02-11T14:20:37.987Z,4.43
2023-02-11T14:24:50.906Z,4.60
2023-02-11T14:29:14.029Z,4.07
2023-02-11T14:33:48.137Z,3.05
2023-02-11T14:38:10.951Z,3.70
2023-02-11T14:42:20.964Z,2.97
2023-02-11T14:46:32.985Z,3.05
2023-02-11T14:50:43.007Z,4.05
2023-02-11T14:54:51.433Z,4.57
2023-02-11T14:58:58.714Z,7.05
2023-02-11T15:03:05.543Z,7.72
2023-02-11T15:07:14.004Z,3.70
2023-02-11T15:11:23.855Z,3.15
2023-02-11T15:15:32.416Z,2.13
2023-02-11T15:19:44.215Z,1.95
2023-02-11T15:24:03.403Z,3.03
2023-02-11T15:28:24.227Z,1.70
2023-02-11T15:32:31.036Z,1.63
2023-02-11T15:36:38.600Z,1.95
2023-02-11T15:40:58.436Z,1.90
2023-02-11T15:45:08.423Z,2.60
2023-02-11T15:49:19.220Z,1.85
2023-02-11T15:53:36.483Z,2.15
2023-02-11T15:57:49.285Z,2.40
2023-02-11T16:01:58.197Z,2.63
2023-02-11T16:06:41.884Z,3.00
2023-02-11T16:11:31.026Z,4.68
2023-02-11T16:16:11.840Z,4.78
2023-02-11T16:20:19.934Z,5.35
2023-02-11T16:24:27.990Z,4.90
2023-02-11T16:28:37.025Z,4.13
2023-02-11T16:32:43.849Z,3.70
2023-02-11T16:36:52.235Z,3.80
2023-02-11T16:40:59.009Z,5.03
2023-02-11T16:45:06.707Z,3.83
2023-02-11T16:49:23.891Z,4.10
2023-02-11T16:53:30.601Z,3.55
2023-02-11T16:57:37.272Z,3.05
2023-02-11T17:01:44.986Z,3.15
2023-02-11T17:05:55.578Z,4.13
2023-02-11T17:10:02.732Z,4.95
2023-02-11T17:14:09.414Z,4.85
2023-02-11T17:18:16.103Z,4.47
2023-02-11T17:22:22.807Z,5.38
2023-02-11T17:26:29.586Z,4.72
2023-02-11T17:30:36.383Z,4.28
2023-02-11T17:34:43.176Z,5.55
2023-02-11T17:38:51.221Z,5.55
2023-02-11T17:42:57.903Z,5.55
2023-02-11T17:47:04.716Z,5.50
2023-02-11T17:51:30.094Z,6.32
2023-02-11T17:55:38.492Z,6.47
2023-02-11T17:59:45.336Z,6.65
2023-02-11T18:03:52.003Z,5.95
2023-02-11T18:07:58.676Z,6.88
2023-02-11T18:12:06.750Z,6.32
2023-02-11T18:16:15.751Z,5.82
2023-02-11T18:20:22.661Z,6.43
2023-02-11T18:24:29.317Z,7.22
2023-02-11T18:28:36.333Z,7.03
2023-02-11T18:32:43.244Z,7.07
2023-02-11T18:36:50.146Z,8.63
2023-02-11T18:40:58.095Z,7.10
2023-02-11T18:45:09.345Z,7.60
2023-02-11T18:49:16.077Z,7.35
2023-02-11T18:53:24.752Z,8.52
2023-02-11T18:57:32.018Z,6.50
2023-02-11T19:01:43.170Z,7.35
2023-02-11T19:05:50.596Z,6.60
2023-02-11T19:09:57.503Z,7.03
2023-02-11T19:14:10.058Z,7.00
2023-02-11T19:18:16.793Z,7.63
2023-02-11T19:22:23.530Z,6.95
2023-02-11T19:26:30.300Z,6.25
2023-02-11T19:30:37.093Z,7.45
2023-02-11T19:34:43.797Z,6.78
2023-02-11T19:38:50.485Z,6.82
2023-02-11T19:42:57.162Z,6.03
2023-02-11T19:47:04.056Z,6.38
2023-02-11T19:51:13.219Z,5.47
2023-02-11T19:55:20.098Z,6.68
2023-02-11T19:59:26.842Z,6.43
2023-02-11T20:03:35.094Z,7.07
2023-02-11T20:07:41.768Z,7.20
2023-02-11T20:11:49.324Z,7.72
2023-02-11T20:15:56.112Z,8.48
2023-02-11T20:20:03.436Z,6.63
2023-02-11T20:24:10.335Z,6.63
2023-02-11T20:28:17.114Z,6.65
2023-02-11T20:32:23.964Z,7.57
2023-02-11T20:36:35.555Z,7.65
2023-02-11T20:40:44.158Z,6.23
2023-02-11T20:44:50.923Z,6.05
2023-02-11T20:48:57.804Z,5.95
2023-02-11T20:53:05.666Z,7.50
2023-02-11T20:57:12.481Z,6.95
2023-02-11T21:01:23.418Z,6.70
2023-02-11T21:05:31.020Z,6.40
2023-02-11T21:09:38.187Z,6.85
2023-02-11T21:13:45.084Z,6.78
2023-02-11T21:17:51.891Z,6.47
2023-02-11T21:22:00.627Z,6.90
2023-02-11T21:26:08.150Z,6.65
2023-02-11T21:30:14.890Z,6.85
2023-02-11T21:34:21.705Z,6.95
2023-02-11T21:38:28.904Z,8.00
2023-02-11T21:42:35.675Z,7.70
2023-02-11T21:46:42.476Z,7.75
2023-02-11T21:50:49.735Z,8.23
2023-02-11T21:54:56.435Z,7.60
2023-02-11T21:59:03.396Z,7.60
2023-02-11T22:03:10.900Z,7.47
2023-02-11T22:07:18.321Z,7.63
2023-02-11T22:11:25.041Z,7.25
2023-02-11T22:15:31.703Z,7.43
2023-02-11T22:19:38.440Z,7.57
2023-02-11T22:23:45.816Z,7.75
2023-02-11T22:27:52.503Z,7.72
2023-02-11T22:31:59.257Z,7.55
2023-02-11T22:36:11.192Z,7.43
2023-02-11T22:40:17.917Z,7.70
2023-02-11T22:44:24.976Z,7.15
2023-02-11T22:48:32.300Z,7.47
2023-02-11T22:52:38.974Z,8.40
2023-02-11T22:56:49.329Z,7.07
2023-02-11T23:00:56.024Z,7.38
2023-02-11T23:05:02.729Z,7.28
2023-02-11T23:09:12.420Z,7.38
2023-02-11T23:13:19.203Z,7.93
2023-02-11T23:17:26.164Z,6.80
2023-02-11T23:21:35.325Z,6.18
2023-02-11T23:25:45.241Z,6.82
2023-02-11T23:29:55.083Z,6.90
2023-02-11T23:34:02.097Z,7.78
2023-02-11T23:38:08.794Z,6.57
2023-02-11T23:42:15.674Z,6.72
2023-02-11T23:46:23.375Z,6.95
2023-02-11T23:50:30.268Z,7.60
2023-02-11T23:54:37.000Z,8.25
2023-02-11T23:58:44.851Z,7.18
